sensor_id;sensor_type;location;lat;lon;timestamp;temperature;humidity
19803;DHT22;66074;50.764;6.090;2023-05-09T00:01:17;16.80;99.90
19803;DHT22;66074;50.764;6.090;2023-05-09T00:03:42;16.80;99.90
19803;DHT22;66074;50.764;6.090;2023-05-09T00:06:08;16.80;99.90
19803;DHT22;66074;50.764;6.090;2023-05-09T00:08:34;16.80;99.90
19803;DHT22;66074;50.764;6.090;2023-05-09T00:11:00;16.80;99.90
19803;DHT22;66074;50.764;6.090;2023-05-09T00:13:26;16.80;99.90
19803;DHT22;66074;50.764;6.090;2023-05-09T00:15:52;16.80;99.90
19803;DHT22;66074;50.764;6.090;2023-05-09T00:18:19;16.80;99.90
19803;DHT22;66074;50.764;6.090;2023-05-09T00:20:46;16.80;99.90
19803;DHT22;66074;50.764;6.090;2023-05-09T00:23:12;16.80;99.90
19803;DHT22;66074;50.764;6.090;2023-05-09T00:25:38;16.80;99.90
19803;DHT22;66074;50.764;6.090;2023-05-09T00:28:03;16.90;99.90
19803;DHT22;66074;50.764;6.090;2023-05-09T00:30:30;16.80;99.90
19803;DHT22;66074;50.764;6.090;2023-05-09T00:32:55;16.80;99.90
19803;DHT22;66074;50.764;6.090;2023-05-09T00:35:21;16.80;99.90
19803;DHT22;66074;50.764;6.090;2023-05-09T00:37:47;16.80;99.90
19803;DHT22;66074;50.764;6.090;2023-05-09T00:40:12;16.80;99.90
19803;DHT22;66074;50.764;6.090;2023-05-09T00:42:38;16.80;99.90
19803;DHT22;66074;50.764;6.090;2023-05-09T00:45:04;16.80;99.90
19803;DHT22;66074;50.764;6.090;2023-05-09T00:47:32;16.80;99.90
19803;DHT22;66074;50.764;6.090;2023-05-09T00:49:58;16.80;99.90
19803;DHT22;66074;50.764;6.090;2023-05-09T00:52:24;16.80;99.90
19803;DHT22;66074;50.764;6.090;2023-05-09T00:54:54;16.80;99.90
19803;DHT22;66074;50.764;6.090;2023-05-09T00:57:23;16.80;99.90
19803;DHT22;66074;50.764;6.090;2023-05-09T00:59:49;16.90;99.90
19803;DHT22;66074;50.764;6.090;2023-05-09T01:02:16;16.80;99.90
19803;DHT22;66074;50.764;6.090;2023-05-09T01:04:43;16.80;99.90
19803;DHT22;66074;50.764;6.090;2023-05-09T01:07:22;16.80;99.90
19803;DHT22;66074;50.764;6.090;2023-05-09T01:10:01;16.80;99.90
19803;DHT22;66074;50.764;6.090;2023-05-09T01:12:48;16.70;99.90
19803;DHT22;66074;50.764;6.090;2023-05-09T01:20:38;16.70;99.90
19803;DHT22;66074;50.764;6.090;2023-05-09T01:31:41;16.80;99.90
19803;DHT22;66074;50.764;6.090;2023-05-09T01:34:10;16.70;99.90
19803;DHT22;66074;50.764;6.090;2023-05-09T01:36:39;16.70;99.90
19803;DHT22;66074;50.764;6.090;2023-05-09T01:39:09;16.70;99.90
19803;DHT22;66074;50.764;6.090;2023-05-09T01:41:36;16.70;99.90
19803;DHT22;66074;50.764;6.090;2023-05-09T01:44:04;16.70;99.90
19803;DHT22;66074;50.764;6.090;2023-05-09T01:46:31;16.70;99.90
19803;DHT22;66074;50.764;6.090;2023-05-09T01:48:58;16.80;99.90
19803;DHT22;66074;50.764;6.090;2023-05-09T01:51:26;16.80;99.90
19803;DHT22;66074;50.764;6.090;2023-05-09T01:53:53;16.80;99.90
19803;DHT22;66074;50.764;6.090;2023-05-09T01:56:21;16.80;99.90
19803;DHT22;66074;50.764;6.090;2023-05-09T01:58:49;16.80;99.90
19803;DHT22;66074;50.764;6.090;2023-05-09T02:01:16;16.80;99.90
19803;DHT22;66074;50.764;6.090;2023-05-09T02:03:44;16.80;99.90
19803;DHT22;66074;50.764;6.090;2023-05-09T02:06:11;16.80;99.90
19803;DHT22;66074;50.764;6.090;2023-05-09T02:08:37;16.90;99.90
19803;DHT22;66074;50.764;6.090;2023-05-09T02:11:04;16.80;99.90
19803;DHT22;66074;50.764;6.090;2023-05-09T02:13:29;16.80;99.90
19803;DHT22;66074;50.764;6.090;2023-05-09T02:15:55;16.80;99.90
19803;DHT22;66074;50.764;6.090;2023-05-09T02:18:21;16.90;99.90
19803;DHT22;66074;50.764;6.090;2023-05-09T02:20:47;16.90;99.90
19803;DHT22;66074;50.764;6.090;2023-05-09T02:23:13;16.80;99.90
19803;DHT22;66074;50.764;6.090;2023-05-09T02:25:39;16.90;99.90
19803;DHT22;66074;50.764;6.090;2023-05-09T02:28:06;16.90;99.90
19803;DHT22;66074;50.764;6.090;2023-05-09T02:30:38;16.90;99.90
19803;DHT22;66074;50.764;6.090;2023-05-09T02:33:06;16.80;99.90
19803;DHT22;66074;50.764;6.090;2023-05-09T02:35:33;16.90;99.90
19803;DHT22;66074;50.764;6.090;2023-05-09T02:37:59;16.80;99.90
19803;DHT22;66074;50.764;6.090;2023-05-09T02:40:27;16.90;99.90
19803;DHT22;66074;50.764;6.090;2023-05-09T02:42:53;16.90;99.90
19803;DHT22;66074;50.764;6.090;2023-05-09T02:45:19;16.80;99.90
19803;DHT22;66074;50.764;6.090;2023-05-09T02:47:45;16.80;99.90
19803;DHT22;66074;50.764;6.090;2023-05-09T02:50:11;16.80;99.90
19803;DHT22;66074;50.764;6.090;2023-05-09T02:52:36;16.80;99.90
19803;DHT22;66074;50.764;6.090;2023-05-09T02:55:03;16.70;99.90
19803;DHT22;66074;50.764;6.090;2023-05-09T02:57:29;16.70;99.90
19803;DHT22;66074;50.764;6.090;2023-05-09T02:59:55;16.70;99.90
19803;DHT22;66074;50.764;6.090;2023-05-09T03:02:20;16.70;99.90
19803;DHT22;66074;50.764;6.090;2023-05-09T03:04:48;16.70;99.90
19803;DHT22;66074;50.764;6.090;2023-05-09T03:07:13;16.70;99.90
19803;DHT22;66074;50.764;6.090;2023-05-09T03:09:39;16.70;99.90
19803;DHT22;66074;50.764;6.090;2023-05-09T03:12:05;16.70;99.90
19803;DHT22;66074;50.764;6.090;2023-05-09T03:14:30;16.70;99.90
19803;DHT22;66074;50.764;6.090;2023-05-09T03:16:56;16.70;99.90
19803;DHT22;66074;50.764;6.090;2023-05-09T03:19:22;16.60;99.90
19803;DHT22;66074;50.764;6.090;2023-05-09T03:21:47;16.60;99.90
19803;DHT22;66074;50.764;6.090;2023-05-09T03:24:13;16.60;99.90
19803;DHT22;66074;50.764;6.090;2023-05-09T03:26:39;16.60;99.90
19803;DHT22;66074;50.764;6.090;2023-05-09T03:29:04;16.50;99.90
19803;DHT22;66074;50.764;6.090;2023-05-09T03:31:30;16.40;99.90
19803;DHT22;66074;50.764;6.090;2023-05-09T03:33:56;16.40;99.90
19803;DHT22;66074;50.764;6.090;2023-05-09T03:36:22;16.40;99.90
19803;DHT22;66074;50.764;6.090;2023-05-09T03:38:48;16.40;99.90
19803;DHT22;66074;50.764;6.090;2023-05-09T03:41:15;16.40;99.90
19803;DHT22;66074;50.764;6.090;2023-05-09T03:43:41;16.30;99.90
19803;DHT22;66074;50.764;6.090;2023-05-09T03:46:06;16.30;99.90
19803;DHT22;66074;50.764;6.090;2023-05-09T03:48:32;16.30;99.90
19803;DHT22;66074;50.764;6.090;2023-05-09T03:50:58;16.30;99.90
19803;DHT22;66074;50.764;6.090;2023-05-09T03:53:23;16.30;99.90
19803;DHT22;66074;50.764;6.090;2023-05-09T03:55:49;16.40;99.90
19803;DHT22;66074;50.764;6.090;2023-05-09T03:58:15;16.40;99.90
19803;DHT22;66074;50.764;6.090;2023-05-09T04:00:41;16.50;99.90
19803;DHT22;66074;50.764;6.090;2023-05-09T04:03:06;16.60;99.90
19803;DHT22;66074;50.764;6.090;2023-05-09T04:05:32;16.60;99.90
19803;DHT22;66074;50.764;6.090;2023-05-09T04:07:59;16.60;99.90
19803;DHT22;66074;50.764;6.090;2023-05-09T04:10:25;16.60;99.90
19803;DHT22;66074;50.764;6.090;2023-05-09T04:12:50;16.60;99.90
19803;DHT22;66074;50.764;6.090;2023-05-09T04:15:16;16.60;99.90
19803;DHT22;66074;50.764;6.090;2023-05-09T04:17:42;16.60;99.90
19803;DHT22;66074;50.764;6.090;2023-05-09T04:20:08;16.60;99.90
19803;DHT22;66074;50.764;6.090;2023-05-09T04:22:35;16.60;99.90
19803;DHT22;66074;50.764;6.090;2023-05-09T04:25:01;16.60;99.90
19803;DHT22;66074;50.764;6.090;2023-05-09T04:27:27;16.60;99.90
19803;DHT22;66074;50.764;6.090;2023-05-09T04:29:53;16.60;99.90
19803;DHT22;66074;50.764;6.090;2023-05-09T04:32:19;16.50;99.90
19803;DHT22;66074;50.764;6.090;2023-05-09T04:34:45;16.50;99.90
19803;DHT22;66074;50.764;6.090;2023-05-09T04:37:11;16.50;99.90
19803;DHT22;66074;50.764;6.090;2023-05-09T04:39:37;16.40;99.90
19803;DHT22;66074;50.764;6.090;2023-05-09T04:42:03;16.40;99.90
19803;DHT22;66074;50.764;6.090;2023-05-09T04:44:29;16.40;99.90
19803;DHT22;66074;50.764;6.090;2023-05-09T04:46:55;16.40;99.90
19803;DHT22;66074;50.764;6.090;2023-05-09T04:49:22;16.40;99.90
19803;DHT22;66074;50.764;6.090;2023-05-09T04:51:48;16.50;99.90
19803;DHT22;66074;50.764;6.090;2023-05-09T04:54:13;16.50;99.90
19803;DHT22;66074;50.764;6.090;2023-05-09T04:56:39;16.50;99.90
19803;DHT22;66074;50.764;6.090;2023-05-09T04:59:05;16.50;99.90
19803;DHT22;66074;50.764;6.090;2023-05-09T05:01:31;16.60;99.90
19803;DHT22;66074;50.764;6.090;2023-05-09T05:03:56;16.60;99.90
19803;DHT22;66074;50.764;6.090;2023-05-09T05:06:22;16.60;99.90
19803;DHT22;66074;50.764;6.090;2023-05-09T05:08:47;16.60;99.90
19803;DHT22;66074;50.764;6.090;2023-05-09T05:11:13;16.60;99.90
19803;DHT22;66074;50.764;6.090;2023-05-09T05:13:39;16.60;99.90
19803;DHT22;66074;50.764;6.090;2023-05-09T05:16:04;16.70;99.90
19803;DHT22;66074;50.764;6.090;2023-05-09T05:18:30;16.70;99.90
19803;DHT22;66074;50.764;6.090;2023-05-09T05:20:56;16.70;99.90
19803;DHT22;66074;50.764;6.090;2023-05-09T05:23:21;16.70;99.90
19803;DHT22;66074;50.764;6.090;2023-05-09T05:25:47;16.70;99.90
19803;DHT22;66074;50.764;6.090;2023-05-09T05:28:12;16.80;99.90
19803;DHT22;66074;50.764;6.090;2023-05-09T05:30:39;16.70;99.90
19803;DHT22;66074;50.764;6.090;2023-05-09T05:33:05;16.80;99.90
19803;DHT22;66074;50.764;6.090;2023-05-09T05:35:30;16.80;99.90
19803;DHT22;66074;50.764;6.090;2023-05-09T05:37:56;16.90;99.90
19803;DHT22;66074;50.764;6.090;2023-05-09T05:40:22;17.00;99.90
19803;DHT22;66074;50.764;6.090;2023-05-09T05:42:47;17.00;99.90
19803;DHT22;66074;50.764;6.090;2023-05-09T05:45:13;17.10;99.90
19803;DHT22;66074;50.764;6.090;2023-05-09T05:47:39;17.10;99.90
19803;DHT22;66074;50.764;6.090;2023-05-09T05:50:05;17.10;99.90
19803;DHT22;66074;50.764;6.090;2023-05-09T05:52:32;17.10;99.90
19803;DHT22;66074;50.764;6.090;2023-05-09T05:54:58;17.10;99.90
19803;DHT22;66074;50.764;6.090;2023-05-09T05:57:24;17.10;99.90
19803;DHT22;66074;50.764;6.090;2023-05-09T05:59:50;17.10;99.90
19803;DHT22;66074;50.764;6.090;2023-05-09T06:02:16;17.10;99.90
19803;DHT22;66074;50.764;6.090;2023-05-09T06:04:42;17.20;99.90
19803;DHT22;66074;50.764;6.090;2023-05-09T06:07:09;17.20;99.90
19803;DHT22;66074;50.764;6.090;2023-05-09T06:09:35;17.30;99.90
19803;DHT22;66074;50.764;6.090;2023-05-09T06:12:00;17.40;99.90
19803;DHT22;66074;50.764;6.090;2023-05-09T06:14:26;17.40;99.90
19803;DHT22;66074;50.764;6.090;2023-05-09T06:16:52;17.50;99.90
19803;DHT22;66074;50.764;6.090;2023-05-09T06:19:18;17.50;99.90
19803;DHT22;66074;50.764;6.090;2023-05-09T06:21:44;17.60;99.90
19803;DHT22;66074;50.764;6.090;2023-05-09T06:24:09;17.70;99.90
19803;DHT22;66074;50.764;6.090;2023-05-09T06:26:35;17.80;99.90
19803;DHT22;66074;50.764;6.090;2023-05-09T06:29:01;17.90;99.90
19803;DHT22;66074;50.764;6.090;2023-05-09T06:31:27;18.00;99.90
19803;DHT22;66074;50.764;6.090;2023-05-09T06:33:53;18.10;99.90
19803;DHT22;66074;50.764;6.090;2023-05-09T06:36:18;18.10;99.90
19803;DHT22;66074;50.764;6.090;2023-05-09T06:38:44;18.10;99.90
19803;DHT22;66074;50.764;6.090;2023-05-09T06:41:10;18.20;99.90
19803;DHT22;66074;50.764;6.090;2023-05-09T06:43:36;18.20;99.90
19803;DHT22;66074;50.764;6.090;2023-05-09T06:46:01;18.20;99.90
19803;DHT22;66074;50.764;6.090;2023-05-09T06:48:27;18.30;99.90
19803;DHT22;66074;50.764;6.090;2023-05-09T06:50:53;18.30;99.90
19803;DHT22;66074;50.764;6.090;2023-05-09T06:53:18;18.40;99.90
19803;DHT22;66074;50.764;6.090;2023-05-09T06:55:44;18.40;99.90
19803;DHT22;66074;50.764;6.090;2023-05-09T06:58:10;18.40;99.90
19803;DHT22;66074;50.764;6.090;2023-05-09T07:00:36;18.40;99.90
19803;DHT22;66074;50.764;6.090;2023-05-09T07:03:02;18.40;99.90
19803;DHT22;66074;50.764;6.090;2023-05-09T07:05:28;18.60;99.90
19803;DHT22;66074;50.764;6.090;2023-05-09T07:07:53;18.70;99.90
19803;DHT22;66074;50.764;6.090;2023-05-09T07:10:20;18.90;99.90
19803;DHT22;66074;50.764;6.090;2023-05-09T07:12:48;19.00;99.90
19803;DHT22;66074;50.764;6.090;2023-05-09T07:15:15;19.00;99.90
19803;DHT22;66074;50.764;6.090;2023-05-09T07:17:40;19.10;99.90
19803;DHT22;66074;50.764;6.090;2023-05-09T07:20:06;19.20;99.90
19803;DHT22;66074;50.764;6.090;2023-05-09T07:22:32;19.30;99.90
19803;DHT22;66074;50.764;6.090;2023-05-09T07:24:58;19.40;99.90
19803;DHT22;66074;50.764;6.090;2023-05-09T07:27:23;19.50;99.90
19803;DHT22;66074;50.764;6.090;2023-05-09T07:29:49;19.60;99.90
19803;DHT22;66074;50.764;6.090;2023-05-09T07:32:17;19.70;99.90
19803;DHT22;66074;50.764;6.090;2023-05-09T07:34:42;19.70;99.90
19803;DHT22;66074;50.764;6.090;2023-05-09T07:37:08;19.70;99.90
19803;DHT22;66074;50.764;6.090;2023-05-09T07:39:34;19.80;99.90
19803;DHT22;66074;50.764;6.090;2023-05-09T07:41:59;19.80;99.90
19803;DHT22;66074;50.764;6.090;2023-05-09T07:44:25;19.60;99.90
19803;DHT22;66074;50.764;6.090;2023-05-09T07:46:50;19.80;99.90
19803;DHT22;66074;50.764;6.090;2023-05-09T07:49:16;19.80;99.90
19803;DHT22;66074;50.764;6.090;2023-05-09T07:51:41;19.90;99.90
19803;DHT22;66074;50.764;6.090;2023-05-09T07:54:07;19.80;99.90
19803;DHT22;66074;50.764;6.090;2023-05-09T07:56:34;19.90;99.90
19803;DHT22;66074;50.764;6.090;2023-05-09T07:59:00;19.90;99.90
19803;DHT22;66074;50.764;6.090;2023-05-09T08:01:26;19.90;99.90
19803;DHT22;66074;50.764;6.090;2023-05-09T08:03:51;20.00;99.90
19803;DHT22;66074;50.764;6.090;2023-05-09T08:06:17;20.10;99.90
19803;DHT22;66074;50.764;6.090;2023-05-09T08:08:43;20.00;99.90
19803;DHT22;66074;50.764;6.090;2023-05-09T08:11:08;20.00;99.90
19803;DHT22;66074;50.764;6.090;2023-05-09T08:13:35;20.10;99.90
19803;DHT22;66074;50.764;6.090;2023-05-09T08:16:00;20.10;99.90
19803;DHT22;66074;50.764;6.090;2023-05-09T08:18:26;20.10;99.90
19803;DHT22;66074;50.764;6.090;2023-05-09T08:20:52;20.10;99.90
19803;DHT22;66074;50.764;6.090;2023-05-09T08:23:17;20.20;99.90
19803;DHT22;66074;50.764;6.090;2023-05-09T08:25:43;20.20;99.90
19803;DHT22;66074;50.764;6.090;2023-05-09T08:28:09;20.30;99.90
19803;DHT22;66074;50.764;6.090;2023-05-09T08:30:35;20.30;99.90
19803;DHT22;66074;50.764;6.090;2023-05-09T08:33:00;20.40;99.90
19803;DHT22;66074;50.764;6.090;2023-05-09T08:35:26;20.40;99.90
19803;DHT22;66074;50.764;6.090;2023-05-09T08:37:52;20.50;99.90
19803;DHT22;66074;50.764;6.090;2023-05-09T08:40:17;20.60;99.90
19803;DHT22;66074;50.764;6.090;2023-05-09T08:42:44;20.50;99.60
19803;DHT22;66074;50.764;6.090;2023-05-09T08:45:12;20.60;99.60
19803;DHT22;66074;50.764;6.090;2023-05-09T08:47:41;20.70;99.40
19803;DHT22;66074;50.764;6.090;2023-05-09T08:50:07;20.70;99.30
19803;DHT22;66074;50.764;6.090;2023-05-09T08:52:34;20.70;99.10
19803;DHT22;66074;50.764;6.090;2023-05-09T08:55:03;20.80;99.10
19803;DHT22;66074;50.764;6.090;2023-05-09T08:57:31;20.80;99.30
19803;DHT22;66074;50.764;6.090;2023-05-09T08:59:59;20.80;98.90
19803;DHT22;66074;50.764;6.090;2023-05-09T09:02:25;20.90;98.90
19803;DHT22;66074;50.764;6.090;2023-05-09T09:04:52;21.00;98.80
19803;DHT22;66074;50.764;6.090;2023-05-09T09:07:19;21.10;98.70
19803;DHT22;66074;50.764;6.090;2023-05-09T09:09:46;21.10;98.30
19803;DHT22;66074;50.764;6.090;2023-05-09T09:12:17;21.10;98.10
19803;DHT22;66074;50.764;6.090;2023-05-09T09:14:53;21.10;97.90
19803;DHT22;66074;50.764;6.090;2023-05-09T09:17:24;21.10;97.50
19803;DHT22;66074;50.764;6.090;2023-05-09T09:19:57;21.00;97.40
19803;DHT22;66074;50.764;6.090;2023-05-09T09:22:28;21.00;97.60
19803;DHT22;66074;50.764;6.090;2023-05-09T09:24:59;21.00;97.30
19803;DHT22;66074;50.764;6.090;2023-05-09T09:27:24;21.00;97.40
19803;DHT22;66074;50.764;6.090;2023-05-09T09:29:50;21.10;97.40
19803;DHT22;66074;50.764;6.090;2023-05-09T09:32:16;21.20;97.30
19803;DHT22;66074;50.764;6.090;2023-05-09T09:34:42;21.30;97.40
19803;DHT22;66074;50.764;6.090;2023-05-09T09:37:08;21.50;97.30
19803;DHT22;66074;50.764;6.090;2023-05-09T09:39:34;21.60;97.20
19803;DHT22;66074;50.764;6.090;2023-05-09T09:42:10;21.70;97.30
19803;DHT22;66074;50.764;6.090;2023-05-09T09:44:36;21.90;96.40
19803;DHT22;66074;50.764;6.090;2023-05-09T09:47:01;22.00;97.00
19803;DHT22;66074;50.764;6.090;2023-05-09T09:49:27;22.10;96.80
19803;DHT22;66074;50.764;6.090;2023-05-09T09:51:57;22.20;96.70
19803;DHT22;66074;50.764;6.090;2023-05-09T09:54:26;22.20;96.00
19803;DHT22;66074;50.764;6.090;2023-05-09T09:56:52;22.20;96.00
19803;DHT22;66074;50.764;6.090;2023-05-09T09:59:20;22.10;96.30
19803;DHT22;66074;50.764;6.090;2023-05-09T10:02:05;22.20;96.20
19803;DHT22;66074;50.764;6.090;2023-05-09T10:04:37;22.20;94.80
19803;DHT22;66074;50.764;6.090;2023-05-09T10:07:09;22.40;95.90
19803;DHT22;66074;50.764;6.090;2023-05-09T10:09:36;22.50;95.00
19803;DHT22;66074;50.764;6.090;2023-05-09T10:12:07;22.40;95.50
19803;DHT22;66074;50.764;6.090;2023-05-09T10:14:35;22.40;95.20
19803;DHT22;66074;50.764;6.090;2023-05-09T10:17:02;22.10;95.10
19803;DHT22;66074;50.764;6.090;2023-05-09T10:19:28;22.00;95.10
19803;DHT22;66074;50.764;6.090;2023-05-09T10:21:56;21.80;95.10
19803;DHT22;66074;50.764;6.090;2023-05-09T10:27:05;21.50;94.50
19803;DHT22;66074;50.764;6.090;2023-05-09T10:29:35;21.50;95.10
19803;DHT22;66074;50.764;6.090;2023-05-09T10:32:09;21.40;95.40
19803;DHT22;66074;50.764;6.090;2023-05-09T10:34:39;21.30;94.90
19803;DHT22;66074;50.764;6.090;2023-05-09T10:37:07;21.20;95.00
19803;DHT22;66074;50.764;6.090;2023-05-09T10:39:35;21.20;95.10
19803;DHT22;66074;50.764;6.090;2023-05-09T10:42:01;21.20;95.20
19803;DHT22;66074;50.764;6.090;2023-05-09T10:44:27;21.20;95.20
19803;DHT22;66074;50.764;6.090;2023-05-09T10:46:53;21.10;95.10
19803;DHT22;66074;50.764;6.090;2023-05-09T10:49:20;21.20;95.30
19803;DHT22;66074;50.764;6.090;2023-05-09T10:51:49;21.10;95.40
19803;DHT22;66074;50.764;6.090;2023-05-09T10:54:26;21.10;95.40
19803;DHT22;66074;50.764;6.090;2023-05-09T10:56:52;21.00;95.60
19803;DHT22;66074;50.764;6.090;2023-05-09T10:59:53;21.00;95.50
19803;DHT22;66074;50.764;6.090;2023-05-09T11:02:19;21.00;95.30
19803;DHT22;66074;50.764;6.090;2023-05-09T11:04:45;20.90;95.50
19803;DHT22;66074;50.764;6.090;2023-05-09T11:07:38;20.80;95.70
19803;DHT22;66074;50.764;6.090;2023-05-09T11:10:14;20.90;96.20
19803;DHT22;66074;50.764;6.090;2023-05-09T11:12:57;20.90;96.30
19803;DHT22;66074;50.764;6.090;2023-05-09T11:15:23;20.90;96.30
19803;DHT22;66074;50.764;6.090;2023-05-09T11:18:09;20.90;96.20
19803;DHT22;66074;50.764;6.090;2023-05-09T11:20:35;20.90;96.40
19803;DHT22;66074;50.764;6.090;2023-05-09T11:23:08;20.90;96.30
19803;DHT22;66074;50.764;6.090;2023-05-09T11:25:41;20.90;96.30
19803;DHT22;66074;50.764;6.090;2023-05-09T11:28:06;20.90;96.40
19803;DHT22;66074;50.764;6.090;2023-05-09T11:30:39;20.90;96.30
19803;DHT22;66074;50.764;6.090;2023-05-09T11:33:05;20.90;96.50
19803;DHT22;66074;50.764;6.090;2023-05-09T11:35:45;20.80;96.50
19803;DHT22;66074;50.764;6.090;2023-05-09T11:38:19;20.80;96.50
19803;DHT22;66074;50.764;6.090;2023-05-09T11:40:46;20.90;96.70
19803;DHT22;66074;50.764;6.090;2023-05-09T11:43:12;20.90;96.50
19803;DHT22;66074;50.764;6.090;2023-05-09T11:45:38;21.00;96.60
19803;DHT22;66074;50.764;6.090;2023-05-09T11:48:07;20.90;96.50
19803;DHT22;66074;50.764;6.090;2023-05-09T11:50:33;20.90;96.50
19803;DHT22;66074;50.764;6.090;2023-05-09T11:52:59;20.70;96.40
19803;DHT22;66074;50.764;6.090;2023-05-09T11:55:25;20.60;96.50
19803;DHT22;66074;50.764;6.090;2023-05-09T11:57:54;20.60;96.70
19803;DHT22;66074;50.764;6.090;2023-05-09T12:00:24;20.60;96.90
19803;DHT22;66074;50.764;6.090;2023-05-09T12:02:51;20.50;97.20
19803;DHT22;66074;50.764;6.090;2023-05-09T12:05:19;20.50;97.10
19803;DHT22;66074;50.764;6.090;2023-05-09T12:07:45;20.40;97.10
19803;DHT22;66074;50.764;6.090;2023-05-09T12:10:13;20.40;97.20
19803;DHT22;66074;50.764;6.090;2023-05-09T12:12:47;20.30;97.30
19803;DHT22;66074;50.764;6.090;2023-05-09T12:15:13;20.30;97.60
19803;DHT22;66074;50.764;6.090;2023-05-09T12:17:40;20.20;97.50
19803;DHT22;66074;50.764;6.090;2023-05-09T12:20:07;20.20;97.60
19803;DHT22;66074;50.764;6.090;2023-05-09T12:22:33;20.10;97.60
19803;DHT22;66074;50.764;6.090;2023-05-09T12:25:00;20.10;97.80
19803;DHT22;66074;50.764;6.090;2023-05-09T12:27:28;20.10;98.10
19803;DHT22;66074;50.764;6.090;2023-05-09T12:29:58;20.20;98.30
19803;DHT22;66074;50.764;6.090;2023-05-09T12:32:25;20.20;98.30
19803;DHT22;66074;50.764;6.090;2023-05-09T12:34:56;20.20;98.30
19803;DHT22;66074;50.764;6.090;2023-05-09T12:37:22;20.20;98.20
19803;DHT22;66074;50.764;6.090;2023-05-09T12:40:14;20.10;98.00
19803;DHT22;66074;50.764;6.090;2023-05-09T12:42:43;20.10;98.60
19803;DHT22;66074;50.764;6.090;2023-05-09T12:45:09;20.00;98.40
19803;DHT22;66074;50.764;6.090;2023-05-09T12:47:35;19.90;98.30
19803;DHT22;66074;50.764;6.090;2023-05-09T12:50:04;19.90;98.50
19803;DHT22;66074;50.764;6.090;2023-05-09T12:52:35;19.80;98.70
19803;DHT22;66074;50.764;6.090;2023-05-09T12:55:08;19.80;99.00
19803;DHT22;66074;50.764;6.090;2023-05-09T12:57:40;19.70;99.20
19803;DHT22;66074;50.764;6.090;2023-05-09T13:00:08;19.80;98.90
19803;DHT22;66074;50.764;6.090;2023-05-09T13:02:36;19.70;98.80
19803;DHT22;66074;50.764;6.090;2023-05-09T13:05:09;19.70;99.10
19803;DHT22;66074;50.764;6.090;2023-05-09T13:07:44;19.70;99.20
19803;DHT22;66074;50.764;6.090;2023-05-09T13:10:33;19.80;99.60
19803;DHT22;66074;50.764;6.090;2023-05-09T13:12:58;19.80;99.60
19803;DHT22;66074;50.764;6.090;2023-05-09T13:15:24;19.80;99.40
19803;DHT22;66074;50.764;6.090;2023-05-09T13:17:54;19.90;99.50
19803;DHT22;66074;50.764;6.090;2023-05-09T13:20:23;19.80;99.60
19803;DHT22;66074;50.764;6.090;2023-05-09T13:22:52;20.10;99.90
19803;DHT22;66074;50.764;6.090;2023-05-09T13:25:18;19.90;99.90
19803;DHT22;66074;50.764;6.090;2023-05-09T13:27:44;20.00;99.80
19803;DHT22;66074;50.764;6.090;2023-05-09T13:30:10;19.90;99.70
19803;DHT22;66074;50.764;6.090;2023-05-09T13:32:36;19.90;99.80
19803;DHT22;66074;50.764;6.090;2023-05-09T13:35:03;19.90;99.90
19803;DHT22;66074;50.764;6.090;2023-05-09T13:37:31;19.90;99.90
19803;DHT22;66074;50.764;6.090;2023-05-09T13:39:56;19.90;99.90
19803;DHT22;66074;50.764;6.090;2023-05-09T13:42:22;19.70;99.90
19803;DHT22;66074;50.764;6.090;2023-05-09T13:44:47;19.70;99.90
19803;DHT22;66074;50.764;6.090;2023-05-09T13:47:13;19.70;99.90
19803;DHT22;66074;50.764;6.090;2023-05-09T13:49:39;19.70;99.90
19803;DHT22;66074;50.764;6.090;2023-05-09T13:52:05;19.70;99.90
19803;DHT22;66074;50.764;6.090;2023-05-09T13:54:31;19.60;99.90
19803;DHT22;66074;50.764;6.090;2023-05-09T13:57:03;19.60;99.90
19803;DHT22;66074;50.764;6.090;2023-05-09T13:59:32;19.60;99.90
19803;DHT22;66074;50.764;6.090;2023-05-09T14:01:58;19.60;99.90
19803;DHT22;66074;50.764;6.090;2023-05-09T14:04:28;19.60;99.90
19803;DHT22;66074;50.764;6.090;2023-05-09T14:06:56;19.60;99.90
19803;DHT22;66074;50.764;6.090;2023-05-09T14:09:23;19.60;99.90
19803;DHT22;66074;50.764;6.090;2023-05-09T14:11:50;19.60;99.90
19803;DHT22;66074;50.764;6.090;2023-05-09T14:14:18;19.60;99.90
19803;DHT22;66074;50.764;6.090;2023-05-09T14:16:44;19.50;99.90
19803;DHT22;66074;50.764;6.090;2023-05-09T14:19:10;19.50;99.90
19803;DHT22;66074;50.764;6.090;2023-05-09T14:21:36;19.60;99.90
19803;DHT22;66074;50.764;6.090;2023-05-09T14:24:02;19.60;99.90
19803;DHT22;66074;50.764;6.090;2023-05-09T14:26:28;19.60;99.90
19803;DHT22;66074;50.764;6.090;2023-05-09T14:28:54;19.60;99.90
19803;DHT22;66074;50.764;6.090;2023-05-09T14:31:19;19.60;99.90
19803;DHT22;66074;50.764;6.090;2023-05-09T14:33:45;19.60;99.90
19803;DHT22;66074;50.764;6.090;2023-05-09T14:36:11;19.50;99.90
19803;DHT22;66074;50.764;6.090;2023-05-09T14:38:37;19.50;99.90
19803;DHT22;66074;50.764;6.090;2023-05-09T14:41:03;19.40;99.90
19803;DHT22;66074;50.764;6.090;2023-05-09T14:43:28;19.30;99.90
19803;DHT22;66074;50.764;6.090;2023-05-09T14:45:54;19.00;99.90
19803;DHT22;66074;50.764;6.090;2023-05-09T14:48:21;18.70;99.90
19803;DHT22;66074;50.764;6.090;2023-05-09T14:50:47;18.40;99.90
19803;DHT22;66074;50.764;6.090;2023-05-09T14:53:14;18.20;99.90
19803;DHT22;66074;50.764;6.090;2023-05-09T14:55:40;18.10;99.90
19803;DHT22;66074;50.764;6.090;2023-05-09T14:58:06;18.00;99.90
19803;DHT22;66074;50.764;6.090;2023-05-09T15:00:32;17.90;99.90
19803;DHT22;66074;50.764;6.090;2023-05-09T15:02:58;17.90;99.90
19803;DHT22;66074;50.764;6.090;2023-05-09T15:05:24;17.90;99.90
19803;DHT22;66074;50.764;6.090;2023-05-09T15:07:49;17.90;99.90
19803;DHT22;66074;50.764;6.090;2023-05-09T15:10:15;17.90;99.90
19803;DHT22;66074;50.764;6.090;2023-05-09T15:12:42;17.80;99.90
19803;DHT22;66074;50.764;6.090;2023-05-09T15:15:15;17.80;99.90
19803;DHT22;66074;50.764;6.090;2023-05-09T15:17:42;17.70;99.90
19803;DHT22;66074;50.764;6.090;2023-05-09T15:20:08;17.70;99.90
19803;DHT22;66074;50.764;6.090;2023-05-09T15:22:34;17.60;99.90
19803;DHT22;66074;50.764;6.090;2023-05-09T15:24:59;17.50;99.90
19803;DHT22;66074;50.764;6.090;2023-05-09T15:27:25;17.50;99.90
19803;DHT22;66074;50.764;6.090;2023-05-09T15:29:51;17.50;99.90
19803;DHT22;66074;50.764;6.090;2023-05-09T15:32:17;17.50;99.90
19803;DHT22;66074;50.764;6.090;2023-05-09T15:34:42;17.60;99.90
19803;DHT22;66074;50.764;6.090;2023-05-09T15:37:08;17.50;99.90
19803;DHT22;66074;50.764;6.090;2023-05-09T15:39:34;17.60;99.90
19803;DHT22;66074;50.764;6.090;2023-05-09T15:42:00;17.50;99.90
19803;DHT22;66074;50.764;6.090;2023-05-09T15:44:26;17.50;99.90
19803;DHT22;66074;50.764;6.090;2023-05-09T15:46:52;17.50;99.90